createdAt,value
2018-07-09T00:05:06.028Z,101106.06
2018-07-09T00:07:34.929Z,101102.66
2018-07-09T00:10:03.966Z,101098.09
2018-07-09T00:12:32.839Z,101093.20
2018-07-09T00:15:02.027Z,101100.70
2018-07-09T00:17:30.952Z,101092.91
2018-07-09T00:19:59.951Z,101093.61
2018-07-09T00:22:29.045Z,101096.52
2018-07-09T00:24:57.949Z,101089.24
2018-07-09T00:27:26.964Z,101087.39
2018-07-09T00:29:56.196Z,101093.17
2018-07-09T00:32:25.009Z,101089.44
2018-07-09T00:34:53.968Z,101090.47
2018-07-09T00:37:22.913Z,101090.80
2018-07-09T00:39:51.850Z,101085.91
2018-07-09T00:42:20.758Z,101090.80
2018-07-09T00:44:50.050Z,101085.91
2018-07-09T00:47:18.839Z,101086.23
2018-07-09T00:49:47.827Z,101080.33
2018-07-09T00:52:17.002Z,101086.73
2018-07-09T00:54:45.819Z,101087.59
2018-07-09T00:57:14.669Z,101088.09
2018-07-09T00:59:43.822Z,101088.61
2018-07-09T01:02:12.955Z,101085.05
2018-07-09T01:04:42.051Z,101084.55
2018-07-09T01:07:11.094Z,101085.91
2018-07-09T01:09:40.258Z,101084.69
2018-07-09T01:12:12.972Z,101087.75
2018-07-09T01:14:42.485Z,101090.47
2018-07-09T01:17:11.598Z,101094.53
2018-07-09T01:19:40.732Z,101095.39
2018-07-09T01:22:09.688Z,101091.81
2018-07-09T01:24:38.808Z,101087.75
2018-07-09T01:27:07.610Z,101084.69
2018-07-09T01:29:36.704Z,101087.26
2018-07-09T01:32:05.806Z,101085.05
2018-07-09T01:34:34.810Z,101083.70
2018-07-09T01:37:03.839Z,101082.84
2018-07-09T01:39:32.625Z,101085.55
2018-07-09T01:42:01.875Z,101077.91
2018-07-09T01:44:30.937Z,101079.27
2018-07-09T01:47:00.039Z,101082.34
2018-07-09T01:49:29.177Z,101078.28
2018-07-09T01:51:58.215Z,101077.05
2018-07-09T01:54:27.147Z,101076.56
2018-07-09T01:56:56.165Z,101077.91
2018-07-09T01:59:25.243Z,101071.14
2018-07-09T02:01:54.186Z,101067.94
2018-07-09T02:04:23.238Z,101060.81
2018-07-09T02:06:52.159Z,101062.66
2018-07-09T02:09:21.079Z,101059.12
2018-07-09T02:11:50.052Z,101064.01
2018-07-09T02:14:19.204Z,101064.01
2018-07-09T02:16:48.184Z,100978.47
2018-07-09T02:19:17.201Z,101061.83
2018-07-09T02:21:46.313Z,101065.89
2018-07-09T02:24:15.280Z,101065.36
2018-07-09T02:26:44.305Z,101060.11
2018-07-09T02:29:13.271Z,101055.20
2018-07-09T02:31:42.430Z,101057.41
2018-07-09T02:34:11.564Z,101058.92
2018-07-09T02:36:40.670Z,101054.01
2018-07-09T02:39:09.672Z,101058.92
2018-07-09T02:41:38.718Z,101049.55
2018-07-09T02:44:07.909Z,101060.28
2018-07-09T02:46:37.029Z,101066.52
2018-07-09T02:49:05.947Z,101066.03
2018-07-09T02:51:34.944Z,101064.67
2018-07-09T02:54:03.918Z,101062.83
2018-07-09T02:56:32.882Z,101060.61
2018-07-09T02:59:01.921Z,101060.97
2018-07-09T03:01:30.870Z,101057.24
2018-07-09T03:04:00.028Z,101051.50
2018-07-09T03:06:29.255Z,101051.00
2018-07-09T03:08:58.360Z,101047.44
2018-07-09T03:11:27.461Z,101050.14
2018-07-09T03:13:56.599Z,101048.29
2018-07-09T03:16:25.650Z,101045.58
2018-07-09T03:18:54.558Z,101040.17
2018-07-09T03:21:23.605Z,101040.49
2018-07-09T03:23:52.622Z,101035.94
2018-07-09T03:26:21.669Z,101038.15
2018-07-09T03:28:50.798Z,101039.34
2018-07-09T03:31:19.762Z,101039.34
2018-07-09T03:33:48.806Z,101044.95
2018-07-09T03:36:17.942Z,101051.09
2018-07-09T03:38:47.065Z,101049.20
2018-07-09T03:41:16.159Z,101050.92
2018-07-09T03:43:45.205Z,101056.34
2018-07-09T03:46:14.172Z,101056.70
2018-07-09T03:48:43.276Z,101056.70
2018-07-09T03:51:12.386Z,101064.46
2018-07-09T03:53:41.542Z,101064.46
2018-07-09T03:56:10.444Z,101066.61
2018-07-09T03:58:39.571Z,101057.69
2018-07-09T04:01:08.702Z,101056.83
2018-07-09T04:03:37.482Z,101059.05
2018-07-09T04:06:06.267Z,101057.69
2018-07-09T04:08:35.188Z,101053.98
2018-07-09T04:11:04.176Z,101057.39
2018-07-09T04:13:33.335Z,101058.94
2018-07-09T04:16:02.274Z,101065.91
2018-07-09T04:18:31.420Z,101070.16
2018-07-09T04:21:00.436Z,101069.86
2018-07-09T04:23:29.418Z,101069.05
2018-07-09T04:25:58.360Z,101067.40
2018-07-09T04:28:27.547Z,101062.04
2018-07-09T04:30:56.491Z,101063.91
2018-07-09T04:33:25.591Z,101066.81
2018-07-09T04:35:54.540Z,101070.44
2018-07-09T04:38:23.475Z,101070.09
2018-07-09T04:40:52.481Z,101061.66
2018-07-09T04:43:21.576Z,101065.23
2018-07-09T04:45:50.531Z,101063.73
2018-07-09T04:48:19.616Z,101061.84
2018-07-09T04:50:48.615Z,101065.92
2018-07-09T04:53:17.605Z,101065.42
2018-07-09T04:55:46.501Z,101068.98
2018-07-09T04:58:15.935Z,101070.17
2018-07-09T05:00:44.710Z,101068.81
2018-07-09T05:03:13.874Z,101070.17
2018-07-09T05:05:42.730Z,101072.38
2018-07-09T05:08:11.667Z,101069.17
2018-07-09T05:10:40.567Z,101079.34
2018-07-09T05:13:09.570Z,101077.14
2018-07-09T05:15:38.650Z,101079.84
2018-07-09T05:18:08.324Z,101073.43
2018-07-09T05:20:37.124Z,101079.34
2018-07-09T05:23:06.438Z,101080.20
2018-07-09T05:25:35.395Z,101073.43
2018-07-09T05:28:04.625Z,101074.95
2018-07-09T05:30:33.731Z,101075.78
2018-07-09T05:33:02.903Z,101079.52
2018-07-09T05:35:31.818Z,101079.16
2018-07-09T05:38:00.794Z,101079.52
2018-07-09T05:40:30.060Z,101071.03
2018-07-09T05:42:59.533Z,101076.45
2018-07-09T05:45:28.632Z,101074.59
2018-07-09T05:47:58.653Z,101068.97
2018-07-09T05:50:27.751Z,101074.77
2018-07-09T05:52:57.047Z,101076.63
2018-07-09T05:55:25.789Z,101074.41
2018-07-09T05:57:54.635Z,101076.76
2018-07-09T06:00:23.859Z,101075.93
2018-07-09T06:02:53.008Z,101075.41
2018-07-09T06:05:22.827Z,101074.91
2018-07-09T06:07:51.734Z,101077.29
2018-07-09T06:10:20.695Z,101078.64
2018-07-09T06:12:49.801Z,101080.99
2018-07-09T06:15:18.795Z,101084.56
2018-07-09T06:17:48.107Z,101084.06
2018-07-09T06:20:17.126Z,101086.24
2018-07-09T06:22:46.357Z,101092.02
2018-07-09T06:25:15.183Z,101095.73
2018-07-09T06:27:44.167Z,101092.02
2018-07-09T06:30:13.044Z,101098.80
2018-07-09T06:32:41.934Z,101097.94
2018-07-09T06:35:11.123Z,101099.66
2018-07-09T06:37:40.211Z,101096.45
2018-07-09T06:40:09.245Z,101098.30
2018-07-09T06:42:38.259Z,101103.73
2018-07-09T06:45:07.450Z,101105.08
2018-07-09T06:47:36.662Z,101108.12
2018-07-09T06:50:05.783Z,101111.69
2018-07-09T06:52:34.695Z,101107.79
2018-07-09T06:55:03.866Z,101111.00
2018-07-09T06:57:32.794Z,101112.36
2018-07-09T07:00:01.951Z,101112.85
2018-07-09T07:02:30.982Z,101110.14
2018-07-09T07:05:00.026Z,101116.92
2018-07-09T07:07:29.142Z,101116.06
2018-07-09T07:09:58.403Z,101113.88
2018-07-09T07:12:27.297Z,101111.17
2018-07-09T07:14:56.316Z,101111.66
2018-07-09T07:17:25.427Z,101112.52
2018-07-09T07:19:55.451Z,101106.74
2018-07-09T07:22:24.583Z,101102.18
2018-07-09T07:24:53.619Z,101103.17
2018-07-09T07:27:23.092Z,101107.23
2018-07-09T07:29:52.018Z,101107.23
2018-07-09T07:32:21.084Z,101107.73
2018-07-09T07:34:50.005Z,101122.14
2018-07-09T07:37:18.886Z,101120.80
2018-07-09T07:39:47.783Z,101121.64
2018-07-09T07:42:16.634Z,101125.72
2018-07-09T07:44:45.836Z,101129.28
2018-07-09T07:47:14.724Z,101119.44
2018-07-09T07:49:43.761Z,101129.61
2018-07-09T07:52:12.633Z,101129.97
2018-07-09T07:54:41.432Z,101122.50
2018-07-09T07:57:10.784Z,101125.91
2018-07-09T07:59:39.842Z,101125.41
2018-07-09T08:02:08.977Z,101121.34
2018-07-09T08:04:37.930Z,101124.55
2018-07-09T08:07:06.924Z,101127.63
2018-07-09T08:09:35.831Z,101130.66
2018-07-09T08:12:59.659Z,101134.73
2018-07-09T08:14:33.993Z,101135.22
2018-07-09T08:17:03.221Z,101136.08
2018-07-09T08:19:31.998Z,101141.50
2018-07-09T08:22:00.904Z,101142.36
2018-07-09T08:24:29.733Z,101139.82
2018-07-09T08:26:58.766Z,101136.58
2018-07-09T08:29:27.854Z,101145.57
2018-07-09T08:31:56.975Z,101146.59
2018-07-09T08:34:26.021Z,101143.36
2018-07-09T08:36:55.154Z,101145.57
2018-07-09T08:39:24.292Z,101143.36
2018-07-09T08:41:53.545Z,101147.42
2018-07-09T08:44:22.454Z,101145.93
2018-07-09T08:46:51.343Z,101147.28
2018-07-09T08:49:20.426Z,101146.26
2018-07-09T08:51:49.430Z,101140.02
2018-07-09T08:54:18.320Z,101140.34
2018-07-09T08:56:47.312Z,101144.27
2018-07-09T08:59:16.304Z,101151.05
2018-07-09T09:01:45.313Z,101146.32
2018-07-09T09:04:14.290Z,101143.61
2018-07-09T09:06:43.302Z,101138.69
2018-07-09T09:09:12.287Z,101142.61
2018-07-09T09:11:41.401Z,101147.01
2018-07-09T09:14:10.242Z,101145.33
2018-07-09T09:16:39.206Z,101155.64
2018-07-09T09:19:08.172Z,101151.57
2018-07-09T09:21:36.932Z,101153.98
2018-07-09T09:24:05.982Z,101150.41
2018-07-09T09:26:34.818Z,101152.13
2018-07-09T09:29:03.658Z,101155.69
2018-07-09T09:31:32.622Z,101157.55
2018-07-09T09:34:01.329Z,101164.33
2018-07-09T09:36:30.108Z,101163.47
2018-07-09T09:38:58.907Z,101159.27
2018-07-09T09:41:27.936Z,101161.80
2018-07-09T09:43:57.133Z,101165.37
2018-07-09T09:46:26.164Z,101168.09
2018-07-09T09:48:55.062Z,101168.41
2018-07-09T09:51:23.916Z,101171.12
2018-07-09T09:53:53.117Z,101173.53
2018-07-09T09:56:22.425Z,101169.63
2018-07-09T09:58:51.607Z,101169.47
2018-07-09T10:01:20.651Z,101165.40
2018-07-09T10:03:49.542Z,101167.12
2018-07-09T10:06:18.636Z,101163.55
2018-07-09T10:08:47.730Z,101168.47
2018-07-09T10:11:16.778Z,101168.47
2018-07-09T10:13:45.929Z,101166.26
2018-07-09T10:16:14.982Z,101174.39
2018-07-09T10:18:44.093Z,101173.89
2018-07-09T10:21:13.216Z,101172.87
2018-07-09T10:23:42.086Z,101167.12
2018-07-09T10:26:10.998Z,101171.52
2018-07-09T10:28:40.203Z,101174.58
2018-07-09T10:31:09.231Z,101171.88
2018-07-09T10:33:38.294Z,101179.64
2018-07-09T10:36:07.259Z,101177.80
2018-07-09T10:38:36.275Z,101175.94
2018-07-09T10:41:05.328Z,101165.59
2018-07-09T10:43:34.316Z,101163.23
2018-07-09T10:46:03.363Z,101169.16
2018-07-09T10:48:32.292Z,101176.80
2018-07-09T10:51:01.200Z,101178.66
2018-07-09T10:53:30.492Z,101184.57
2018-07-09T10:55:59.947Z,101179.51
2018-07-09T10:58:29.021Z,101180.50
2018-07-09T11:00:58.114Z,101176.94
2018-07-09T11:03:27.236Z,101193.56
2018-07-09T11:05:56.400Z,101190.86
2018-07-09T11:08:25.480Z,101192.20
2018-07-09T11:10:54.540Z,101190.86
2018-07-09T11:13:23.634Z,101189.00
2018-07-09T11:15:52.836Z,101196.97
2018-07-09T11:18:21.885Z,101204.47
2018-07-09T11:20:51.100Z,101204.97
2018-07-09T11:23:19.968Z,101207.18
2018-07-09T11:25:48.906Z,101220.73
2018-07-09T11:28:18.166Z,101219.71
2018-07-09T11:30:47.204Z,101212.07
2018-07-09T11:33:16.226Z,101212.93
2018-07-09T11:35:45.190Z,101227.84
2018-07-09T11:38:14.187Z,101222.78
2018-07-09T11:40:42.921Z,101220.94
2018-07-09T11:43:11.738Z,101222.28
2018-07-09T11:45:40.672Z,101219.44
2018-07-09T11:48:09.553Z,101220.80
2018-07-09T11:50:38.343Z,101218.85
2018-07-09T11:53:07.684Z,101220.80
2018-07-09T11:55:36.797Z,101218.45
2018-07-09T11:58:05.935Z,101220.13
2018-07-09T12:00:35.413Z,101215.56
2018-07-09T12:03:04.581Z,101219.63
2018-07-09T12:05:33.666Z,101218.64
2018-07-09T12:08:02.852Z,101226.25
2018-07-09T12:10:31.872Z,101228.13
2018-07-09T12:13:01.038Z,101233.39
2018-07-09T12:15:30.075Z,101219.47
2018-07-09T12:17:58.938Z,101226.11
2018-07-09T12:20:27.996Z,101236.09
2018-07-09T12:22:56.885Z,101233.39
2018-07-09T12:25:26.001Z,101219.83
2018-07-09T12:27:54.897Z,101222.04
2018-07-09T12:30:24.187Z,101222.90
2018-07-09T12:32:53.065Z,101216.12
2018-07-09T12:35:22.179Z,101218.30
2018-07-09T12:37:51.159Z,101218.83
2018-07-09T12:40:20.259Z,101211.52
2018-07-09T12:42:49.277Z,101221.02
2018-07-09T12:45:18.205Z,101219.16
2018-07-09T12:47:47.289Z,101217.80
2018-07-09T12:50:16.247Z,101213.73
2018-07-09T12:52:45.541Z,101220.52
2018-07-09T12:55:14.644Z,101220.37
2018-07-09T12:57:43.838Z,101228.02
2018-07-09T13:00:12.777Z,101214.59
2018-07-09T13:02:41.971Z,101224.94
2018-07-09T13:05:11.017Z,101223.59
2018-07-09T13:07:39.955Z,101222.23
2018-07-09T13:10:09.064Z,101229.38
2018-07-09T13:12:38.078Z,101239.86
2018-07-09T13:15:07.417Z,101245.28
2018-07-09T13:17:37.794Z,101237.15
2018-07-09T13:20:06.896Z,101242.08
2018-07-09T13:22:35.993Z,101246.14
2018-07-09T13:25:05.263Z,101239.50
2018-07-09T13:27:34.389Z,101249.85
2018-07-09T13:30:03.571Z,101248.50
2018-07-09T13:32:32.792Z,101250.34
2018-07-09T13:35:02.185Z,101253.56
2018-07-09T13:37:31.431Z,101253.73
2018-07-09T13:40:00.293Z,101251.52
2018-07-09T13:42:29.027Z,101253.36
2018-07-09T13:44:57.952Z,101255.58
2018-07-09T13:47:27.045Z,101253.73
2018-07-09T13:49:56.201Z,101253.36
2018-07-09T13:52:25.134Z,101253.36
2018-07-09T13:54:54.106Z,101252.38
2018-07-09T13:57:23.438Z,101255.08
2018-07-09T13:59:52.259Z,101260.87
2018-07-09T14:02:21.258Z,101261.86
2018-07-09T14:04:50.420Z,101266.30
2018-07-09T14:07:19.246Z,101254.42
2018-07-09T14:09:48.317Z,101265.27
2018-07-09T14:12:17.350Z,101256.63
2018-07-09T14:14:46.138Z,101254.78
2018-07-09T14:17:14.872Z,101254.78
2018-07-09T14:20:27.537Z,101264.11
2018-07-09T14:22:56.842Z,101262.25
2018-07-09T14:25:25.966Z,101259.21
2018-07-09T14:27:54.946Z,101265.99
2018-07-09T14:30:24.520Z,101261.39
2018-07-09T14:32:53.632Z,101262.75
2018-07-09T14:35:22.433Z,101260.89
2018-07-09T14:37:51.366Z,101263.11
2018-07-09T14:40:20.465Z,101258.19
2018-07-09T14:42:49.455Z,101258.55
2018-07-09T14:45:18.359Z,101270.25
2018-07-09T14:47:47.356Z,101268.90
2018-07-09T14:50:16.232Z,101275.51
2018-07-09T14:52:45.325Z,101271.08
2018-07-09T14:55:14.384Z,101278.72
2018-07-09T14:57:43.579Z,101280.08
2018-07-09T15:00:12.677Z,101283.16
2018-07-09T15:02:41.885Z,101282.29
2018-07-09T15:05:10.871Z,101281.30
2018-07-09T15:07:40.073Z,101279.58
2018-07-09T15:10:09.279Z,101286.36
2018-07-09T15:12:38.068Z,101287.22
2018-07-09T15:15:07.158Z,101289.94
2018-07-09T15:17:36.167Z,101288.08
2018-07-09T15:20:05.612Z,101281.30
2018-07-09T15:22:34.683Z,101284.51
2018-07-09T15:25:03.590Z,101283.65
2018-07-09T15:27:32.842Z,101293.50
2018-07-09T15:30:01.849Z,101285.86
2018-07-09T15:32:32.019Z,101289.44
2018-07-09T15:35:01.035Z,101294.69
2018-07-09T15:37:30.362Z,101291.98
2018-07-09T15:39:59.475Z,101291.48
2018-07-09T15:42:28.776Z,101295.88
2018-07-09T15:44:58.008Z,101296.73
2018-07-09T15:47:27.013Z,101290.81
2018-07-09T15:49:59.674Z,101292.17
2018-07-09T15:52:28.918Z,101301.30
2018-07-09T15:54:57.785Z,101298.95
2018-07-09T15:57:26.621Z,101304.75
2018-07-09T15:59:55.465Z,101299.45
2018-07-09T16:02:24.293Z,101294.39
2018-07-09T16:04:55.700Z,101296.24
2018-07-09T16:07:24.998Z,101305.24
2018-07-09T16:09:53.746Z,101302.03
2018-07-09T16:12:22.874Z,101306.59
2018-07-09T16:14:51.917Z,101302.86
2018-07-09T16:17:20.917Z,101308.81
2018-07-09T16:19:50.025Z,101307.45
2018-07-09T16:22:18.985Z,101310.17
2018-07-09T16:24:48.105Z,101313.02
2018-07-09T16:27:17.190Z,101306.20
2018-07-09T16:29:46.255Z,101317.95
2018-07-09T16:32:15.306Z,101316.23
2018-07-09T16:34:44.532Z,101318.94
2018-07-09T16:37:13.552Z,101314.05
2018-07-09T16:39:42.705Z,101316.23
2018-07-09T16:42:11.726Z,101315.73
2018-07-09T16:44:40.782Z,101316.23
2018-07-09T16:47:10.828Z,101322.88
2018-07-09T16:49:40.341Z,101317.95
2018-07-09T16:52:09.359Z,101321.02
2018-07-09T16:54:38.805Z,101329.48
2018-07-09T16:57:07.602Z,101325.78
2018-07-09T16:59:36.672Z,101335.77
2018-07-09T17:02:05.933Z,101330.84
2018-07-09T17:04:34.734Z,101328.13
2018-07-09T17:07:03.754Z,101336.27
2018-07-09T17:09:32.725Z,101329.98
2018-07-09T17:12:01.907Z,101334.59
2018-07-09T17:14:30.859Z,101343.05
2018-07-09T17:16:59.866Z,101335.94
2018-07-09T17:20:32.111Z,101349.84
2018-07-09T17:23:01.284Z,101346.06
2018-07-09T17:25:30.491Z,101351.66
2018-07-09T17:27:59.499Z,101351.66
2018-07-09T17:30:28.626Z,101350.80
2018-07-09T17:32:57.731Z,101352.52
2018-07-09T17:35:27.247Z,101355.56
2018-07-09T17:37:56.489Z,101352.52
2018-07-09T17:40:25.629Z,101362.02
2018-07-09T17:42:54.653Z,101366.58
2018-07-09T17:45:23.810Z,101360.66
2018-07-09T17:47:52.948Z,101360.30
2018-07-09T17:50:22.146Z,101368.93
2018-07-09T17:52:51.392Z,101369.45
2018-07-09T17:55:20.471Z,101367.23
2018-07-09T17:57:49.664Z,101377.59
2018-07-09T18:00:18.707Z,101372.66
2018-07-09T18:02:47.980Z,101372.47
2018-07-09T18:05:17.180Z,101380.11
2018-07-09T18:07:46.018Z,101374.82
2018-07-09T18:10:17.376Z,101383.31
2018-07-09T18:12:47.337Z,101388.38
2018-07-09T18:15:16.408Z,101383.61
2018-07-09T18:17:45.569Z,101389.54
2018-07-09T18:20:14.658Z,101394.97
2018-07-09T18:22:43.897Z,101399.20
2018-07-09T18:25:13.834Z,101398.67
2018-07-09T18:27:43.290Z,101402.91
2018-07-09T18:30:13.018Z,101410.67
2018-07-09T18:32:42.174Z,101413.91
2018-07-09T18:35:11.260Z,101418.11
2018-07-09T18:37:41.371Z,101422.18
2018-07-09T18:40:10.528Z,101419.63
2018-07-09T18:42:39.695Z,101422.84
2018-07-09T18:45:09.213Z,101426.91
2018-07-09T18:47:38.438Z,101435.17
2018-07-09T18:50:07.696Z,101435.30
2018-07-09T18:52:37.604Z,101444.80
2018-07-09T18:55:06.910Z,101442.25
2018-07-09T18:57:36.095Z,101449.52
2018-07-09T19:00:05.566Z,101452.23
2018-07-09T19:02:34.695Z,101460.01
2018-07-09T19:05:04.795Z,101466.78
2018-07-09T19:07:34.098Z,101466.09
2018-07-09T19:10:03.397Z,101468.80
2018-07-09T19:12:34.930Z,101466.58
2018-07-09T19:15:06.444Z,101472.50
2018-07-09T19:17:56.424Z,101469.79
2018-07-09T19:20:37.602Z,101475.74
2018-07-09T19:23:06.417Z,101475.88
2018-07-09T19:25:34.978Z,101480.43
2018-07-09T19:28:04.114Z,101476.53
2018-07-09T19:30:31.658Z,101485.02
2018-07-09T19:32:59.403Z,101487.73
2018-07-09T19:35:27.171Z,101489.59
2018-07-09T19:37:55.106Z,101490.58
2018-07-09T19:40:22.490Z,101497.23
2018-07-09T19:42:50.464Z,101504.50
2018-07-09T19:45:18.021Z,101500.56
2018-07-09T19:47:45.543Z,101502.45
2018-07-09T19:50:13.351Z,101503.27
2018-07-09T19:52:40.973Z,101505.98
2018-07-09T19:55:08.882Z,101505.66
2018-07-09T19:57:36.550Z,101508.36
2018-07-09T20:00:04.502Z,101510.22
2018-07-09T20:02:32.119Z,101514.28
2018-07-09T20:04:59.701Z,101513.42
2018-07-09T20:07:27.385Z,101511.20
2018-07-09T20:10:00.081Z,101513.42
2018-07-09T20:12:32.756Z,101519.00
2018-07-09T20:15:05.499Z,101518.14
2018-07-09T20:17:36.480Z,101520.48
2018-07-09T20:20:04.245Z,101519.13
2018-07-09T20:22:31.825Z,101516.09
2018-07-09T20:24:59.338Z,101519.78
2018-07-09T20:27:26.959Z,101518.92
2018-07-09T20:29:54.592Z,101518.09
2018-07-09T20:32:22.265Z,101524.87
2018-07-09T20:34:50.827Z,101525.37
2018-07-09T20:37:18.309Z,101535.35
2018-07-09T20:39:45.824Z,101536.34
2018-07-09T20:42:13.423Z,101540.90
2018-07-09T20:44:41.061Z,101540.90
2018-07-09T20:47:08.665Z,101542.78
2018-07-09T20:49:36.411Z,101545.13
2018-07-09T20:52:04.891Z,101542.05
2018-07-09T20:54:32.436Z,101547.47
2018-07-09T20:57:00.114Z,101543.56
2018-07-09T20:59:27.847Z,101548.98
2018-07-09T21:01:55.431Z,101552.19
2018-07-09T21:04:27.745Z,101551.70
2018-07-09T21:06:56.833Z,101553.70
2018-07-09T21:09:24.978Z,101553.33
2018-07-09T21:11:52.748Z,101553.00
2018-07-09T21:14:20.227Z,101559.77
2018-07-09T21:16:47.832Z,101561.63
2018-07-09T21:19:15.429Z,101559.90
2018-07-09T21:21:43.047Z,101564.46
2018-07-09T21:24:10.550Z,101567.70
2018-07-09T21:26:38.166Z,101569.55
2018-07-09T21:29:05.727Z,101574.11
2018-07-09T21:31:33.352Z,101573.73
2018-07-09T21:34:01.133Z,101572.87
2018-07-09T21:36:28.762Z,101575.25
2018-07-09T21:38:56.330Z,101583.23
2018-07-09T21:41:23.905Z,101580.18
2018-07-09T21:43:51.390Z,101576.11
2018-07-09T21:46:19.001Z,101576.61
2018-07-09T21:48:46.774Z,101574.39
2018-07-09T21:51:14.328Z,101582.52
2018-07-09T21:53:42.096Z,101583.02
2018-07-09T21:56:09.759Z,101583.51
2018-07-09T21:58:37.260Z,101584.03
2018-07-09T22:01:04.899Z,101578.61
2018-07-09T22:03:32.492Z,101582.67
2018-07-09T22:06:00.203Z,101579.97
2018-07-09T22:08:27.843Z,101586.37
2018-07-09T22:10:55.430Z,101586.75
2018-07-09T22:13:23.083Z,101570.89
2018-07-09T22:15:50.673Z,101585.88
2018-07-09T22:18:18.311Z,101589.08
2018-07-09T22:20:45.815Z,101585.52
2018-07-09T22:23:13.417Z,101586.01
2018-07-09T22:25:41.096Z,101585.02
2018-07-09T22:28:08.859Z,101581.94
2018-07-09T22:30:38.003Z,101586.53
2018-07-09T22:33:07.166Z,101586.53
2018-07-09T22:35:36.239Z,101584.31
2018-07-09T22:38:05.350Z,101587.02
2018-07-09T22:40:34.381Z,101584.31
2018-07-09T22:44:11.487Z,101585.67
2018-07-09T22:46:40.595Z,101583.09
2018-07-09T22:49:09.774Z,101587.30
2018-07-09T22:51:38.946Z,101591.86
2018-07-09T22:54:08.084Z,101565.46
2018-07-09T22:56:37.067Z,101591.53
2018-07-09T22:59:06.228Z,101593.71
2018-07-09T23:01:35.317Z,101595.59
2018-07-09T23:04:04.443Z,101600.00
2018-07-09T23:06:33.539Z,101596.42
2018-07-09T23:09:13.867Z,101598.30
2018-07-09T23:12:28.230Z,101599.29
2018-07-09T23:17:17.519Z,101611.11
2018-07-09T23:22:04.706Z,101608.13
2018-07-09T23:24:32.251Z,101611.52
2018-07-09T23:26:59.924Z,101603.17
2018-07-09T23:29:27.538Z,101607.09
2018-07-09T23:31:54.976Z,101612.02
2018-07-09T23:34:22.546Z,101613.21
2018-07-09T23:36:50.115Z,101609.52
2018-07-09T23:39:17.875Z,101612.59
2018-07-09T23:41:45.379Z,101610.72
2018-07-09T23:44:12.998Z,101612.94
2018-07-09T23:46:40.508Z,101612.94
2018-07-09T23:49:08.166Z,101616.55
2018-07-09T23:51:35.880Z,101612.47
2018-07-09T23:54:03.433Z,101617.89
2018-07-09T23:58:53.944Z,101622.33
